Newfield, Maine
Current Conditions -  °F | °C
As of 6:35 PM on Wednesday 22 Oct 2014 (Local Time) from KSFM Reporting Station
Overcast Overcast  
Wind Chill: 39°   Ceiling: 700
Heat Index: 46°   Visibility: 3mi
Dew Point: 41°   Wind: 21mph
Humidity: 81%   Direction: 30°NNE
Pressure: 30.03"   Gusts: 33mph
Location:  43.65°N, 70.85°W
Report Text: KSFM 222235Z AUTO 03018G29KT 3SM OVC007 08/05 A3003 RMK AO1
Loading
Personal Weather Stations






























Interactive Weather Map
Tropical Storm Tracking
New forecast layout! Learn more

10-Day Weather Forecast

Advertisements
Track Severe Weather on mobile